x

New Dungeness - 17 Nm Ne Of Port Angeles, Wa (46088) Wave Buoy

4:50pm - Mon 20th Aug 2018 All times are PDT. -7 hours from GMT.

  • Sig Wave height 0.7ft
  • Average Period 4s
  • Wind
    4mph, 7mph gusts
  • Sea Temp 56°f
  • Air Temp 61°f
  • Sea Pressure 1015.1mb
  • New Dungeness - 17 Nm Ne Of Port Angeles, Wa
  • New Dungeness - 17 Nm Ne Of Port Angeles, Wa

More Historic Weather Station data

Upgrade to MSW Pro to gain access to the past 30 days of data for over 8000 Wavebouys and Weather Stations around the globe.

Join

Comparision Forecast

View Surf forecast
   
Mon 08/20 4:50pm 0.7ft  -  4s 4 7 mph 1015.1mb 56f 61f
4:20pm 0.7ft  -  5s 9 9 mph 1015.2mb 56f 60f
3:50pm 0.7ft  -  4s 7 9 mph 1015.5mb 56f 61f
3:20pm 0.7ft  -  4s 7 9 mph 1015.6mb 55f 63f
2:50pm 0.7ft  -  4s 9 13 mph 1015.8mb 56f 65f
2:20pm 0.7ft  -  4s 9 11 mph 1016.1mb 54f 62f
1:50pm 0.7ft  -  4s 7 11 mph 1016.3mb 54f 59f
1:20pm 1ft 6s 4s 7 9 mph 1016.5mb 55f 66f
12:20pm 1ft 7s 5s 4 4 mph 1017.3mb 55f 61f
11:50am 1ft 5s 5s 4 4 mph 1017.7mb 55f 59f
11:20am 1.3ft 7s 5s 2 4 mph 1017.9mb 55f 58f
10:50am 1.3ft 7s 5s 4 7 mph 1017.9mb 55f 57f
10:20am 2ft 7s 6s 7 9 mph 1017.8mb 55f 56f
9:50am 2ft 7s 7s 7 7 mph 1017.9mb 55f 56f
9:20am 1.6ft 7s 6s 7 7 mph 1018mb 55f 55f
8:50am 1.6ft 7s 6s 7 7 mph 1018.1mb 55f 55f
8:20am 1.3ft 8s 7s 4 7 mph 1018mb 54f 55f
7:50am 1ft 8s 6s 4 7 mph 1017.9mb 55f 54f
7:20am 1ft 8s 5s 7 9 mph 1017.8mb 53f 54f
6:50am 1ft 8s 5s 4 7 mph 1017.7mb 53f 54f
6:20am 0.7ft  -   -  4 4 mph 1017.7mb 53f 54f
5:50am 0.7ft  -  5s 4 4 mph 1017.6mb 53f 54f
5:20am 0.7ft  -  5s 2 4 mph 1017.5mb 53f 53f
4:50am 0.3ft  -  4s 4 4 mph 1017.4mb 53f 53f
4:20am 0.3ft  -  4s 2 4 mph 1017.5mb 53f 53f
3:50am 0.7ft  -  4s 4 4 mph 1017.1mb 53f 53f
3:20am 0.7ft  -  4s 4 4 mph 1017.1mb 53f 53f
2:50am 0.7ft  -  4s 2 4 mph 1017.1mb 52f 53f
2:20am 0.7ft  -  4s 2 4 mph 1017mb 52f 53f
1:50am 0.7ft  -  4s 4 4 mph 1016.8mb 52f 53f
1:20am 1ft 8s 4s 4 7 mph 1016.9mb 52f 53f
12:50am 1ft 3s 3s 2 4 mph 1016.8mb 53f 53f
12:20am 1ft 3s 3s  -  4 mph 1016.7mb 53f 53f
Sun 08/19 11:50pm  -   -   -  4 4 mph 1016.4mb 53f 53f
11:20pm 1.3ft 3s 3s 7 7 mph 1016.3mb 53f 53f
10:50pm 1.3ft 3s 3s 4 7 mph 1016.5mb 53f 53f
10:20pm 1.3ft 3s 3s 7 9 mph 1016.5mb 53f 53f
9:50pm 1.3ft 3s 3s 11 13 mph 1016.2mb 53f 53f
9:20pm 1.3ft 3s 3s 13 16 mph 1016.2mb 53f 53f
8:50pm 1.3ft 3s 3s 9 11 mph 1016.4mb 54f 54f
8:20pm 1.3ft 7s 4s 9 11 mph 1016.2mb 53f 54f
7:50pm 1ft 8s 4s 9 9 mph 1016.1mb 53f 54f
7:20pm 1ft 8s 4s 9 11 mph 1015.9mb 53f 55f
6:50pm 1ft 8s 3s 9 11 mph 1016mb 54f 55f
6:20pm 0.7ft  -  3s 9 11 mph 1016mb 54f 54f
5:50pm  -   -   -  11 11 mph 1016mb 54f 54f
5:20pm 0.7ft  -  3s 11 11 mph 1016.2mb 53f 55f
4:50pm 0.7ft  -  4s 7 9 mph 1016.4mb 53f 56f
4:20pm 0.7ft  -  4s 4 7 mph 1016.8mb 54f 56f
3:50pm 0.7ft  -  4s 7 9 mph 1017mb 54f 55f
3:20pm 0.7ft  -  4s 9 11 mph 1017.3mb 54f 56f
2:50pm 0.7ft  -  4s 7 9 mph 1017.7mb 54f 57f
2:20pm 0.7ft  -  4s 7 7 mph 1017.9mb 56f 56f
1:20pm 0.7ft  -  4s 4 7 mph 1018.4mb 55f 55f
12:50pm 1ft 7s 4s 4 7 mph 1018.5mb 55f 55f
12:20pm 1ft 8s 4s 4 7 mph 1018.8mb 55f 55f
11:50am 1ft 8s 4s 7 7 mph 1019.1mb 55f 55f
11:20am 1ft 7s 4s 4 4 mph 1019.3mb 54f 55f
10:50am 1.3ft 6s 5s 4 7 mph 1019.4mb 54f 55f
10:20am 1.3ft 7s 5s 7 7 mph 1019.4mb 54f 55f
9:50am 1.3ft 7s 5s 7 7 mph 1019.4mb 54f 55f
9:20am 1.3ft 7s 5s 4 7 mph 1019.4mb 54f 55f
8:50am 1.3ft 7s 5s 7 7 mph 1019.4mb 54f 54f
8:20am 1.3ft 7s 5s 7 9 mph 1019.5mb 55f 54f
7:50am 1.3ft 8s 6s 7 9 mph 1019.5mb 54f 53f
7:20am 1.6ft 8s 6s 7 9 mph 1019.4mb 54f 54f
6:50am 1.3ft 7s 6s 4 7 mph 1019.5mb 53f 53f
6:20am 1ft 8s 5s 7 7 mph 1019.3mb 53f 53f
5:50am 1ft 8s 5s 7 9 mph 1019.2mb 53f 53f
5:20am 1ft 7s 5s 7 7 mph 1019.2mb 53f 53f
3:50am 0.7ft  -  4s 4 4 mph 1019.3mb 53f 53f
3:20am 1ft 4s 4s 4 4 mph 1019.1mb 52f 53f
2:50am 0.7ft  -  4s 4 7 mph 1019.1mb 52f 53f
2:20am 1ft 4s 4s 7 9 mph 1019mb 52f 52f
1:50am 1ft 3s 4s 9 11 mph 1019.2mb 53f 52f
1:20am 1ft 4s 4s 7 9 mph 1019.3mb 53f 52f
12:50am 1ft 3s 3s 7 9 mph 1019.2mb 53f 52f
12:20am 1ft 3s 3s 9 11 mph 1019.1mb 53f 52f
Sat 08/18 11:50pm 1ft 3s  -  11 13 mph 1019mb 53f 52f
11:20pm 1ft 3s 3s 9 11 mph 1019.2mb 53f 52f
10:50pm 1.3ft 3s 3s 11 13 mph 1019.2mb 53f 53f
10:20pm 1.3ft 3s 3s 9 11 mph 1019.2mb 53f 52f
9:50pm 1.3ft 3s 3s 11 13 mph 1019.4mb 53f 53f
9:20pm 1.3ft 3s 3s 11 13 mph 1019.5mb 53f 53f
8:50pm 1.3ft 3s 3s 9 11 mph 1019.4mb 53f 53f
8:20pm 1.3ft 7s 3s 11 13 mph 1019.4mb 53f 53f
7:50pm 1ft 7s 3s 11 13 mph 1019.5mb 54f 54f
7:20pm 1ft 6s 4s 9 11 mph 1019.6mb 54f 54f
6:50pm 1ft 7s 5s 9 11 mph 1019.8mb 55f 54f
6:20pm 0.7ft  -  5s 9 11 mph 1019.9mb 55f 54f
5:20pm 0.7ft  -  5s 7 7 mph 1020.4mb 55f 56f
4:50pm 0.7ft  -  5s 7 7 mph 1020.6mb 56f 59f
4:20pm 0.7ft  -  5s 4 4 mph 1020.7mb 55f 59f
3:50pm 0.7ft  -  5s 4 7 mph 1021.1mb 56f 60f
3:20pm 0.7ft  -  5s 4 4 mph 1021.4mb 56f 59f
2:50pm 0.7ft  -  5s 4 7 mph 1021.6mb 56f 60f
2:20pm 1ft 7s 5s 4 4 mph 1021.9mb 56f 60f
1:50pm 0.7ft  -  4s 2 4 mph 1022mb 56f 60f
1:20pm 0.7ft  -  4s  -  2 mph 1022.2mb 56f 61f
12:50pm 0.7ft  -  4s 2 2 mph 1022.7mb 55f 58f
12:20pm 0.7ft  -  4s 2 2 mph 1022.9mb 55f 58f
11:50am 1ft 7s 4s  -  2 mph 1023.1mb 55f 56f
11:20am 1ft 7s 4s 2 4 mph 1023.2mb 54f 54f
10:50am 1ft 6s 4s 4 4 mph 1023.4mb 54f 54f
10:20am 1.3ft 6s 4s 7 7 mph 1023.6mb 53f 53f
9:50am 1.3ft 6s 4s 9 11 mph 1023.7mb 53f 53f
9:20am 1.3ft 7s 5s 9 11 mph 1023.9mb 53f 53f
8:50am 1ft 6s 4s 7 7 mph 1024mb 53f 53f
8:20am 1.3ft 6s 5s 7 7 mph 1024.1mb 53f 53f
7:50am 1.3ft 8s 5s 4 4 mph 1024.1mb 53f 54f
7:20am 1.3ft 7s 5s 4 4 mph 1023.9mb 53f 54f
6:50am 1.3ft 7s 5s 4 7 mph 1023.7mb 53f 53f
6:20am 1ft 4s 4s 2 4 mph 1023.4mb 53f 53f
5:50am 1ft 4s 4s 4 4 mph 1023.2mb 52f 52f
5:20am 1ft 4s 4s 2 4 mph 1023.3mb 52f 52f
4:50am 1ft 4s 4s 2 4 mph 1023.3mb 52f 52f
4:20am 1ft 5s 4s 2 4 mph 1023mb 52f 52f
3:50am 1ft 4s 4s 2 2 mph 1023mb 52f 53f
3:20am 1ft 4s 4s 9 11 mph 1023mb 52f 53f
2:50am 1ft 4s 4s 9 11 mph 1023mb 52f 53f
2:20am 1.3ft 4s 4s 9 11 mph 1023.1mb 52f 53f
1:50am 1.3ft 4s 4s 9 11 mph 1023mb 52f 53f
1:20am 1.3ft 4s 4s 11 13 mph 1023mb 52f 53f
12:50am 1.3ft 4s 4s 11 13 mph 1022.8mb 52f 53f
12:20am 1.3ft 4s 4s 11 13 mph 1022.6mb 52f 53f
Fri 08/17 11:50pm 1.3ft 4s 3s 11 13 mph 1022.7mb 52f 53f
11:20pm 1.3ft 3s 3s 11 13 mph 1022.6mb 52f 53f
10:50pm 1.3ft 3s 3s 11 13 mph 1022.5mb 52f 53f
10:20pm 1.6ft 3s 3s 13 16 mph 1022.5mb 52f 53f
8:50pm 1.3ft 3s 3s 16 20 mph 1022mb 53f 55f
8:20pm 1ft 7s 3s 13 16 mph 1021.9mb 53f 54f
7:50pm 1ft 6s 4s 11 13 mph 1021.9mb 54f 54f
7:20pm 1ft 7s 5s 11 11 mph 1022.3mb 55f 55f
6:50pm 1ft 7s 5s 7 9 mph 1022.3mb 55f 55f
6:20pm 0.7ft  -  4s 4 7 mph 1022.5mb 54f 56f
5:50pm 0.7ft  -  4s 4 4 mph 1022.6mb 54f 56f
5:20pm 0.7ft  -  5s 4 4 mph 1022.8mb 54f 56f
4:50pm 0.7ft  -  4s 4 4 mph 1023mb 54f 55f
4:20pm 0.7ft  -  4s 2 4 mph 1023.2mb 55f 56f
3:50pm 0.7ft  -  4s  -  0 mph 1023.4mb 54f 57f
3:20pm 1ft 8s 4s 4 4 mph 1023.4mb 55f 55f
2:50pm 0.7ft  -  4s 7 7 mph 1023.4mb 55f 55f
2:20pm 0.7ft  -  4s 4 7 mph 1023.6mb 54f 55f
1:50pm 0.7ft  -  4s 4 7 mph 1023.7mb 54f 55f
1:20pm 1ft 7s 4s 7 7 mph 1023.8mb 54f 54f
12:50pm 1ft 8s 4s 4 7 mph 1023.9mb 54f 56f
12:20pm 1ft 5s 4s 2 4 mph 1024mb 53f 55f
11:50am 1ft 3s 4s 7 7 mph 1024mb 53f 54f
11:20am 1ft 3s 3s 7 9 mph 1023.9mb 53f 54f
10:50am 1ft 3s 3s 9 9 mph 1023.8mb 52f 54f
10:20am 1.3ft 3s 4s 9 11 mph 1023.4mb 52f 54f
9:50am 1.6ft 3s 4s 11 13 mph 1023.3mb 52f 53f
9:20am 2ft 5s 4s 11 13 mph 1023mb 52f 53f
8:50am 2ft 6s 4s 11 11 mph 1022.9mb 52f 53f
8:20am 2ft 6s 4s 11 13 mph 1022.6mb 52f 53f
7:50am 2.5ft 4s 4s 11 13 mph 1022.4mb 52f 53f
7:20am 2.5ft 5s 4s 13 18 mph 1022mb 52f 53f
6:50am 3ft 5s 5s 16 20 mph 1021.4mb 52f 53f
6:20am 2ft 5s 4s 13 18 mph 1021.2mb 52f 53f
5:20am 2.5ft 5s 4s 11 13 mph 1020.8mb 51f 53f
4:50am 2.5ft 5s 4s 13 16 mph 1020.8mb 51f 53f
4:20am 2.5ft 6s 5s 13 16 mph 1020.7mb 51f 54f
3:50am 2.5ft 5s 5s 11 13 mph 1020.6mb 52f 54f
3:20am 2.5ft 5s 5s 11 16 mph 1020.5mb 52f 54f
2:20am 2ft 6s 5s 16 25 mph 1019.8mb 52f 54f
1:50am 2.5ft 5s 4s 16 20 mph 1019.9mb 52f 54f
1:20am 2.5ft 5s 4s 18 22 mph 1019.7mb 51f 54f
12:50am 2.5ft 5s 4s 20 27 mph 1019.3mb 51f 54f